EKCH/CPH METAR and TAF weather

Enter ICAO airport designator
Station Type Date Time Source
EKCH METAR 2022/01/29 09:50 UTC NOAA

EKCH 290950Z 25017KT 6000 FEW004 BKN006 07/07 Q1003 TEMPO 26020G30KT BKN004


Station Type Date Time Source
EKCH Decoded METAR 2022/01/29 09:50 UTC NOAA

Koebenhavn / Kastrup, Denmark (EKCH) 55-37N 012-39E 5M
Jan 29, 2022 - 04:50 AM EST / 2022.01.29 0950 UTC
Wind: from the WSW (250 degrees) at 20 MPH (17 KT):0
Visibility: 3 mile(s):0
Sky conditions: mostly cloudy
Temperature: 44 F (7 C)
Dew Point: 44 F (7 C)
Relative Humidity: 100%
Pressure (altimeter): 29.62 in. Hg (1003 hPa)
ob: EKCH 290950Z 25017KT 6000 FEW004 BKN006 07/07 Q1003 TEMPO 26020G30KT BKN004
cycle: 10

Station Type Date Time Source
EKCH TAF 2022/01/29 06:32 UTC NOAA

TAF EKCH 290501Z 2906/3006 23015G25KT 8000 BKN006
TEMPO 2906/2911 2500 RADZ BR BKN004
BECMG 2911/2914 26020G30KT BKN012
BECMG 2914/2916 29032G55KT SCT030
TEMPO 2916/3006 SHRA SCT025CB

Example: see airport list